sensor_id;sensor_type;location;lat;lon;timestamp;P1;durP1;ratioP1;P2;durP2;ratioP2
66212;SDS011;53015;50.046;8.238;2022-12-28T00:00:59;7.07;;;3.53;;
66212;SDS011;53015;50.046;8.238;2022-12-28T00:03:36;9.63;;;4.10;;
66212;SDS011;53015;50.046;8.238;2022-12-28T00:06:02;8.77;;;4.30;;
66212;SDS011;53015;50.046;8.238;2022-12-28T00:08:28;9.85;;;4.10;;
66212;SDS011;53015;50.046;8.238;2022-12-28T00:13:50;9.98;;;4.25;;
66212;SDS011;53015;50.046;8.238;2022-12-28T00:16:28;10.35;;;4.20;;
66212;SDS011;53015;50.046;8.238;2022-12-28T00:18:56;10.68;;;4.50;;
66212;SDS011;53015;50.046;8.238;2022-12-28T00:21:22;9.23;;;4.50;;
66212;SDS011;53015;50.046;8.238;2022-12-28T00:23:52;13.23;;;4.68;;
66212;SDS011;53015;50.046;8.238;2022-12-28T00:26:19;14.63;;;5.15;;
66212;SDS011;53015;50.046;8.238;2022-12-28T00:28:45;14.75;;;5.55;;
66212;SDS011;53015;50.046;8.238;2022-12-28T00:31:11;10.73;;;4.60;;
66212;SDS011;53015;50.046;8.238;2022-12-28T00:33:37;12.07;;;5.10;;
66212;SDS011;53015;50.046;8.238;2022-12-28T00:36:03;7.75;;;3.90;;
66212;SDS011;53015;50.046;8.238;2022-12-28T00:38:30;10.27;;;4.72;;
66212;SDS011;53015;50.046;8.238;2022-12-28T00:40:56;10.88;;;4.15;;
66212;SDS011;53015;50.046;8.238;2022-12-28T00:43:25;7.88;;;4.03;;
66212;SDS011;53015;50.046;8.238;2022-12-28T00:45:51;10.82;;;4.30;;
66212;SDS011;53015;50.046;8.238;2022-12-28T00:48:16;6.63;;;3.70;;
66212;SDS011;53015;50.046;8.238;2022-12-28T00:50:42;8.00;;;3.90;;
66212;SDS011;53015;50.046;8.238;2022-12-28T00:53:08;10.85;;;4.07;;
66212;SDS011;53015;50.046;8.238;2022-12-28T00:55:34;9.38;;;3.45;;
66212;SDS011;53015;50.046;8.238;2022-12-28T00:58:00;8.32;;;3.88;;
66212;SDS011;53015;50.046;8.238;2022-12-28T01:00:26;10.02;;;3.55;;
66212;SDS011;53015;50.046;8.238;2022-12-28T01:02:53;7.88;;;3.58;;
66212;SDS011;53015;50.046;8.238;2022-12-28T01:05:19;5.55;;;3.72;;
66212;SDS011;53015;50.046;8.238;2022-12-28T01:07:45;7.88;;;4.20;;
66212;SDS011;53015;50.046;8.238;2022-12-28T01:10:10;13.00;;;3.83;;
66212;SDS011;53015;50.046;8.238;2022-12-28T01:12:36;14.80;;;4.50;;
66212;SDS011;53015;50.046;8.238;2022-12-28T01:15:02;8.55;;;3.90;;
66212;SDS011;53015;50.046;8.238;2022-12-28T01:17:28;8.07;;;4.13;;
66212;SDS011;53015;50.046;8.238;2022-12-28T01:19:54;8.13;;;4.28;;
66212;SDS011;53015;50.046;8.238;2022-12-28T01:22:19;10.45;;;4.38;;
66212;SDS011;53015;50.046;8.238;2022-12-28T01:24:45;10.80;;;3.97;;
66212;SDS011;53015;50.046;8.238;2022-12-28T01:27:10;9.23;;;3.90;;
66212;SDS011;53015;50.046;8.238;2022-12-28T01:29:35;7.32;;;3.80;;
66212;SDS011;53015;50.046;8.238;2022-12-28T01:32:01;11.85;;;4.50;;
66212;SDS011;53015;50.046;8.238;2022-12-28T01:34:26;8.48;;;4.53;;
66212;SDS011;53015;50.046;8.238;2022-12-28T01:36:52;7.63;;;4.30;;
66212;SDS011;53015;50.046;8.238;2022-12-28T01:39:17;8.10;;;4.03;;
66212;SDS011;53015;50.046;8.238;2022-12-28T01:41:43;8.98;;;3.75;;
66212;SDS011;53015;50.046;8.238;2022-12-28T01:46:47;8.65;;;4.22;;
66212;SDS011;53015;50.046;8.238;2022-12-28T01:52:38;10.45;;;4.50;;
66212;SDS011;53015;50.046;8.238;2022-12-28T01:55:22;9.40;;;5.03;;
66212;SDS011;53015;50.046;8.238;2022-12-28T02:00:22;8.68;;;4.20;;
66212;SDS011;53015;50.046;8.238;2022-12-28T02:02:50;11.02;;;4.25;;
66212;SDS011;53015;50.046;8.238;2022-12-28T02:05:21;6.57;;;4.57;;
66212;SDS011;53015;50.046;8.238;2022-12-28T02:08:09;9.80;;;4.88;;
66212;SDS011;53015;50.046;8.238;2022-12-28T02:10:39;6.97;;;4.25;;
66212;SDS011;53015;50.046;8.238;2022-12-28T02:13:05;9.45;;;4.28;;
66212;SDS011;53015;50.046;8.238;2022-12-28T02:15:31;11.50;;;4.13;;
66212;SDS011;53015;50.046;8.238;2022-12-28T02:17:57;5.85;;;3.80;;
66212;SDS011;53015;50.046;8.238;2022-12-28T02:20:24;13.43;;;5.10;;
66212;SDS011;53015;50.046;8.238;2022-12-28T02:23:38;10.63;;;4.43;;
66212;SDS011;53015;50.046;8.238;2022-12-28T02:34:46;13.73;;;4.78;;
66212;SDS011;53015;50.046;8.238;2022-12-28T02:37:25;10.32;;;5.05;;
66212;SDS011;53015;50.046;8.238;2022-12-28T02:39:57;11.07;;;4.90;;
66212;SDS011;53015;50.046;8.238;2022-12-28T02:42:27;8.90;;;4.45;;
66212;SDS011;53015;50.046;8.238;2022-12-28T02:44:54;9.35;;;4.93;;
66212;SDS011;53015;50.046;8.238;2022-12-28T02:47:39;10.40;;;4.80;;
66212;SDS011;53015;50.046;8.238;2022-12-28T02:50:30;8.48;;;4.35;;
66212;SDS011;53015;50.046;8.238;2022-12-28T02:53:17;8.32;;;5.10;;
66212;SDS011;53015;50.046;8.238;2022-12-28T02:56:04;9.93;;;5.05;;
66212;SDS011;53015;50.046;8.238;2022-12-28T03:04:06;7.85;;;4.63;;
66212;SDS011;53015;50.046;8.238;2022-12-28T03:06:40;8.50;;;5.40;;
66212;SDS011;53015;50.046;8.238;2022-12-28T03:09:39;8.57;;;4.82;;
66212;SDS011;53015;50.046;8.238;2022-12-28T03:12:29;7.10;;;4.75;;
66212;SDS011;53015;50.046;8.238;2022-12-28T03:15:16;8.90;;;5.13;;
66212;SDS011;53015;50.046;8.238;2022-12-28T03:18:01;11.02;;;4.75;;
66212;SDS011;53015;50.046;8.238;2022-12-28T03:20:53;9.63;;;4.95;;
66212;SDS011;53015;50.046;8.238;2022-12-28T03:23:39;12.70;;;5.18;;
66212;SDS011;53015;50.046;8.238;2022-12-28T03:26:27;8.05;;;5.30;;
66212;SDS011;53015;50.046;8.238;2022-12-28T03:29:15;9.18;;;5.45;;
66212;SDS011;53015;50.046;8.238;2022-12-28T03:32:01;10.35;;;5.43;;
66212;SDS011;53015;50.046;8.238;2022-12-28T03:34:27;9.02;;;6.15;;
66212;SDS011;53015;50.046;8.238;2022-12-28T03:39:44;10.18;;;5.30;;
66212;SDS011;53015;50.046;8.238;2022-12-28T03:42:21;10.05;;;5.38;;
66212;SDS011;53015;50.046;8.238;2022-12-28T03:45:15;9.07;;;5.47;;
66212;SDS011;53015;50.046;8.238;2022-12-28T03:47:46;11.90;;;5.75;;
66212;SDS011;53015;50.046;8.238;2022-12-28T03:50:13;9.40;;;5.10;;
66212;SDS011;53015;50.046;8.238;2022-12-28T03:52:39;8.63;;;5.45;;
66212;SDS011;53015;50.046;8.238;2022-12-28T03:55:04;10.00;;;6.20;;
66212;SDS011;53015;50.046;8.238;2022-12-28T03:57:30;9.98;;;5.72;;
66212;SDS011;53015;50.046;8.238;2022-12-28T03:59:55;14.05;;;5.35;;
66212;SDS011;53015;50.046;8.238;2022-12-28T04:02:21;14.38;;;6.20;;
66212;SDS011;53015;50.046;8.238;2022-12-28T04:04:46;7.38;;;5.40;;
66212;SDS011;53015;50.046;8.238;2022-12-28T04:07:12;11.45;;;5.78;;
66212;SDS011;53015;50.046;8.238;2022-12-28T04:09:37;10.98;;;6.40;;
66212;SDS011;53015;50.046;8.238;2022-12-28T04:12:02;10.95;;;6.07;;
66212;SDS011;53015;50.046;8.238;2022-12-28T04:14:28;12.65;;;6.10;;
66212;SDS011;53015;50.046;8.238;2022-12-28T04:16:53;9.10;;;5.47;;
66212;SDS011;53015;50.046;8.238;2022-12-28T04:19:19;7.60;;;5.28;;
66212;SDS011;53015;50.046;8.238;2022-12-28T04:21:44;10.38;;;5.75;;
66212;SDS011;53015;50.046;8.238;2022-12-28T04:24:09;9.88;;;6.15;;
66212;SDS011;53015;50.046;8.238;2022-12-28T04:26:35;9.90;;;5.93;;
66212;SDS011;53015;50.046;8.238;2022-12-28T04:29:00;11.73;;;6.22;;
66212;SDS011;53015;50.046;8.238;2022-12-28T04:31:26;11.05;;;6.20;;
66212;SDS011;53015;50.046;8.238;2022-12-28T04:33:52;11.77;;;5.70;;
66212;SDS011;53015;50.046;8.238;2022-12-28T04:36:18;11.13;;;5.50;;
66212;SDS011;53015;50.046;8.238;2022-12-28T04:38:43;12.68;;;5.90;;
66212;SDS011;53015;50.046;8.238;2022-12-28T04:41:09;12.68;;;5.82;;
66212;SDS011;53015;50.046;8.238;2022-12-28T04:43:35;11.85;;;5.50;;
66212;SDS011;53015;50.046;8.238;2022-12-28T04:46:02;10.52;;;5.93;;
66212;SDS011;53015;50.046;8.238;2022-12-28T04:48:29;8.13;;;5.65;;
66212;SDS011;53015;50.046;8.238;2022-12-28T04:50:55;11.30;;;5.85;;
66212;SDS011;53015;50.046;8.238;2022-12-28T04:53:21;13.55;;;6.70;;
66212;SDS011;53015;50.046;8.238;2022-12-28T04:55:47;13.15;;;5.80;;
66212;SDS011;53015;50.046;8.238;2022-12-28T04:58:13;10.48;;;6.05;;
66212;SDS011;53015;50.046;8.238;2022-12-28T05:00:39;9.05;;;5.53;;
66212;SDS011;53015;50.046;8.238;2022-12-28T05:03:04;12.38;;;5.50;;
66212;SDS011;53015;50.046;8.238;2022-12-28T05:05:30;9.40;;;5.90;;
66212;SDS011;53015;50.046;8.238;2022-12-28T05:08:01;10.77;;;5.80;;
66212;SDS011;53015;50.046;8.238;2022-12-28T05:10:27;8.55;;;5.60;;
66212;SDS011;53015;50.046;8.238;2022-12-28T05:12:54;10.18;;;5.47;;
66212;SDS011;53015;50.046;8.238;2022-12-28T05:15:20;10.90;;;5.97;;
66212;SDS011;53015;50.046;8.238;2022-12-28T05:17:45;10.25;;;6.50;;
66212;SDS011;53015;50.046;8.238;2022-12-28T05:20:10;9.82;;;5.80;;
66212;SDS011;53015;50.046;8.238;2022-12-28T05:22:36;13.38;;;5.78;;
66212;SDS011;53015;50.046;8.238;2022-12-28T05:25:01;7.88;;;5.80;;
66212;SDS011;53015;50.046;8.238;2022-12-28T05:27:27;8.80;;;5.30;;
66212;SDS011;53015;50.046;8.238;2022-12-28T05:29:52;8.55;;;5.47;;
66212;SDS011;53015;50.046;8.238;2022-12-28T05:32:18;8.43;;;5.15;;
66212;SDS011;53015;50.046;8.238;2022-12-28T05:34:43;9.18;;;5.40;;
66212;SDS011;53015;50.046;8.238;2022-12-28T05:37:08;8.13;;;5.25;;
66212;SDS011;53015;50.046;8.238;2022-12-28T05:39:34;6.95;;;4.80;;
66212;SDS011;53015;50.046;8.238;2022-12-28T05:42:00;10.50;;;5.07;;
66212;SDS011;53015;50.046;8.238;2022-12-28T05:44:26;8.88;;;5.28;;
66212;SDS011;53015;50.046;8.238;2022-12-28T05:46:52;9.70;;;4.80;;
66212;SDS011;53015;50.046;8.238;2022-12-28T05:49:17;7.28;;;4.78;;
66212;SDS011;53015;50.046;8.238;2022-12-28T05:51:43;13.50;;;5.05;;
66212;SDS011;53015;50.046;8.238;2022-12-28T05:54:08;8.23;;;4.65;;
66212;SDS011;53015;50.046;8.238;2022-12-28T05:56:34;9.10;;;5.05;;
66212;SDS011;53015;50.046;8.238;2022-12-28T05:59:03;14.43;;;5.28;;
66212;SDS011;53015;50.046;8.238;2022-12-28T06:01:32;10.57;;;5.07;;
66212;SDS011;53015;50.046;8.238;2022-12-28T06:04:00;9.32;;;5.03;;
66212;SDS011;53015;50.046;8.238;2022-12-28T06:06:28;10.75;;;4.63;;
66212;SDS011;53015;50.046;8.238;2022-12-28T06:08:54;10.93;;;4.47;;
66212;SDS011;53015;50.046;8.238;2022-12-28T06:11:21;7.40;;;4.30;;
66212;SDS011;53015;50.046;8.238;2022-12-28T06:13:47;7.15;;;4.88;;
66212;SDS011;53015;50.046;8.238;2022-12-28T06:18:46;8.30;;;4.85;;
66212;SDS011;53015;50.046;8.238;2022-12-28T06:21:19;7.18;;;4.93;;
66212;SDS011;53015;50.046;8.238;2022-12-28T06:23:48;10.13;;;4.35;;
66212;SDS011;53015;50.046;8.238;2022-12-28T06:26:15;9.02;;;4.63;;
66212;SDS011;53015;50.046;8.238;2022-12-28T06:28:43;7.85;;;4.28;;
66212;SDS011;53015;50.046;8.238;2022-12-28T06:31:10;7.43;;;4.85;;
66212;SDS011;53015;50.046;8.238;2022-12-28T06:33:37;9.35;;;4.63;;
66212;SDS011;53015;50.046;8.238;2022-12-28T06:36:03;8.40;;;4.68;;
66212;SDS011;53015;50.046;8.238;2022-12-28T06:38:30;7.53;;;4.57;;
66212;SDS011;53015;50.046;8.238;2022-12-28T06:41:00;6.95;;;4.55;;
66212;SDS011;53015;50.046;8.238;2022-12-28T06:43:29;6.70;;;4.70;;
66212;SDS011;53015;50.046;8.238;2022-12-28T06:46:02;9.38;;;4.57;;
66212;SDS011;53015;50.046;8.238;2022-12-28T06:48:28;8.45;;;5.00;;
66212;SDS011;53015;50.046;8.238;2022-12-28T06:50:58;10.05;;;4.65;;
66212;SDS011;53015;50.046;8.238;2022-12-28T06:53:26;9.32;;;3.95;;
66212;SDS011;53015;50.046;8.238;2022-12-28T06:55:54;7.15;;;4.05;;
66212;SDS011;53015;50.046;8.238;2022-12-28T06:58:21;8.85;;;4.22;;
66212;SDS011;53015;50.046;8.238;2022-12-28T07:00:48;7.30;;;4.45;;
66212;SDS011;53015;50.046;8.238;2022-12-28T07:03:13;9.35;;;5.35;;
66212;SDS011;53015;50.046;8.238;2022-12-28T07:05:38;8.75;;;5.00;;
66212;SDS011;53015;50.046;8.238;2022-12-28T07:08:04;9.88;;;4.57;;
66212;SDS011;53015;50.046;8.238;2022-12-28T07:10:29;8.75;;;4.60;;
66212;SDS011;53015;50.046;8.238;2022-12-28T07:12:56;8.38;;;4.50;;
66212;SDS011;53015;50.046;8.238;2022-12-28T07:15:21;6.95;;;5.15;;
66212;SDS011;53015;50.046;8.238;2022-12-28T07:17:47;8.15;;;5.15;;
66212;SDS011;53015;50.046;8.238;2022-12-28T07:20:12;8.80;;;5.10;;
66212;SDS011;53015;50.046;8.238;2022-12-28T07:22:37;11.27;;;5.60;;
66212;SDS011;53015;50.046;8.238;2022-12-28T07:25:03;13.13;;;5.70;;
66212;SDS011;53015;50.046;8.238;2022-12-28T07:27:29;13.10;;;6.07;;
66212;SDS011;53015;50.046;8.238;2022-12-28T07:29:54;9.80;;;5.28;;
66212;SDS011;53015;50.046;8.238;2022-12-28T07:32:19;9.85;;;5.63;;
66212;SDS011;53015;50.046;8.238;2022-12-28T07:34:45;12.00;;;6.20;;
66212;SDS011;53015;50.046;8.238;2022-12-28T07:37:10;9.02;;;5.75;;
66212;SDS011;53015;50.046;8.238;2022-12-28T07:39:35;7.90;;;4.80;;
66212;SDS011;53015;50.046;8.238;2022-12-28T07:42:01;10.02;;;5.82;;
66212;SDS011;53015;50.046;8.238;2022-12-28T07:44:30;12.00;;;5.80;;
66212;SDS011;53015;50.046;8.238;2022-12-28T07:46:56;10.85;;;5.72;;
66212;SDS011;53015;50.046;8.238;2022-12-28T07:49:21;6.80;;;5.25;;
66212;SDS011;53015;50.046;8.238;2022-12-28T07:51:46;7.80;;;5.53;;
66212;SDS011;53015;50.046;8.238;2022-12-28T07:54:13;9.73;;;5.60;;
66212;SDS011;53015;50.046;8.238;2022-12-28T07:56:38;10.10;;;5.93;;
66212;SDS011;53015;50.046;8.238;2022-12-28T07:59:04;10.48;;;6.25;;
66212;SDS011;53015;50.046;8.238;2022-12-28T08:01:31;9.20;;;5.63;;
66212;SDS011;53015;50.046;8.238;2022-12-28T08:03:59;14.25;;;6.28;;
66212;SDS011;53015;50.046;8.238;2022-12-28T08:06:26;10.75;;;5.55;;
66212;SDS011;53015;50.046;8.238;2022-12-28T08:08:54;9.73;;;5.63;;
66212;SDS011;53015;50.046;8.238;2022-12-28T08:11:23;9.25;;;5.18;;
66212;SDS011;53015;50.046;8.238;2022-12-28T08:13:51;11.32;;;5.68;;
66212;SDS011;53015;50.046;8.238;2022-12-28T08:16:18;6.38;;;4.97;;
66212;SDS011;53015;50.046;8.238;2022-12-28T08:18:45;10.45;;;5.53;;
66212;SDS011;53015;50.046;8.238;2022-12-28T08:21:21;10.27;;;5.38;;
66212;SDS011;53015;50.046;8.238;2022-12-28T08:23:49;9.57;;;5.85;;
66212;SDS011;53015;50.046;8.238;2022-12-28T08:26:15;12.85;;;6.38;;
66212;SDS011;53015;50.046;8.238;2022-12-28T08:28:43;11.25;;;6.28;;
66212;SDS011;53015;50.046;8.238;2022-12-28T08:31:13;10.55;;;6.28;;
66212;SDS011;53015;50.046;8.238;2022-12-28T08:33:42;13.48;;;6.22;;
66212;SDS011;53015;50.046;8.238;2022-12-28T08:36:07;9.88;;;5.95;;
66212;SDS011;53015;50.046;8.238;2022-12-28T08:38:33;10.63;;;5.78;;
66212;SDS011;53015;50.046;8.238;2022-12-28T08:41:01;12.85;;;6.03;;
66212;SDS011;53015;50.046;8.238;2022-12-28T08:43:29;10.70;;;6.30;;
66212;SDS011;53015;50.046;8.238;2022-12-28T08:45:59;9.07;;;5.97;;
66212;SDS011;53015;50.046;8.238;2022-12-28T08:48:25;9.55;;;5.53;;
66212;SDS011;53015;50.046;8.238;2022-12-28T08:50:51;13.25;;;5.75;;
66212;SDS011;53015;50.046;8.238;2022-12-28T08:53:17;11.18;;;4.68;;
66212;SDS011;53015;50.046;8.238;2022-12-28T08:55:43;16.50;;;8.43;;
66212;SDS011;53015;50.046;8.238;2022-12-28T08:58:08;11.48;;;6.22;;
66212;SDS011;53015;50.046;8.238;2022-12-28T09:00:33;9.23;;;5.18;;
66212;SDS011;53015;50.046;8.238;2022-12-28T09:02:59;8.60;;;4.10;;
66212;SDS011;53015;50.046;8.238;2022-12-28T09:05:24;7.63;;;4.30;;
66212;SDS011;53015;50.046;8.238;2022-12-28T09:07:50;9.85;;;4.32;;
66212;SDS011;53015;50.046;8.238;2022-12-28T09:10:16;8.82;;;4.22;;
66212;SDS011;53015;50.046;8.238;2022-12-28T09:12:42;7.55;;;4.25;;
66212;SDS011;53015;50.046;8.238;2022-12-28T09:15:07;11.10;;;4.25;;
66212;SDS011;53015;50.046;8.238;2022-12-28T09:17:33;6.47;;;4.15;;
66212;SDS011;53015;50.046;8.238;2022-12-28T09:19:59;7.45;;;4.22;;
66212;SDS011;53015;50.046;8.238;2022-12-28T09:22:24;10.88;;;4.55;;
66212;SDS011;53015;50.046;8.238;2022-12-28T09:24:50;10.52;;;4.72;;
66212;SDS011;53015;50.046;8.238;2022-12-28T09:27:15;13.73;;;6.97;;
66212;SDS011;53015;50.046;8.238;2022-12-28T09:29:40;13.55;;;5.70;;
66212;SDS011;53015;50.046;8.238;2022-12-28T09:32:06;12.73;;;6.00;;
66212;SDS011;53015;50.046;8.238;2022-12-28T09:34:31;11.88;;;5.93;;
66212;SDS011;53015;50.046;8.238;2022-12-28T09:36:57;13.30;;;5.90;;
66212;SDS011;53015;50.046;8.238;2022-12-28T09:39:22;9.15;;;4.75;;
66212;SDS011;53015;50.046;8.238;2022-12-28T09:42:01;11.35;;;4.80;;
66212;SDS011;53015;50.046;8.238;2022-12-28T09:52:48;3.95;;;1.85;;
66212;SDS011;53015;50.046;8.238;2022-12-28T09:55:22;7.00;;;1.83;;
66212;SDS011;53015;50.046;8.238;2022-12-28T09:57:55;3.33;;;1.40;;
66212;SDS011;53015;50.046;8.238;2022-12-28T10:00:36;4.72;;;1.38;;
66212;SDS011;53015;50.046;8.238;2022-12-28T10:03:10;7.78;;;1.40;;
66212;SDS011;53015;50.046;8.238;2022-12-28T10:05:40;5.85;;;1.30;;
66212;SDS011;53015;50.046;8.238;2022-12-28T10:08:08;3.13;;;1.30;;
66212;SDS011;53015;50.046;8.238;2022-12-28T10:10:38;5.55;;;1.30;;
66212;SDS011;53015;50.046;8.238;2022-12-28T10:13:18;4.93;;;1.30;;
66212;SDS011;53015;50.046;8.238;2022-12-28T10:15:48;2.22;;;1.30;;
66212;SDS011;53015;50.046;8.238;2022-12-28T10:18:16;4.20;;;1.05;;
66212;SDS011;53015;50.046;8.238;2022-12-28T10:20:47;2.57;;;1.40;;
66212;SDS011;53015;50.046;8.238;2022-12-28T10:23:15;4.03;;;1.55;;
66212;SDS011;53015;50.046;8.238;2022-12-28T10:25:45;6.88;;;1.50;;
66212;SDS011;53015;50.046;8.238;2022-12-28T10:28:11;1.83;;;1.10;;
66212;SDS011;53015;50.046;8.238;2022-12-28T10:30:46;2.33;;;1.30;;
66212;SDS011;53015;50.046;8.238;2022-12-28T10:33:28;3.65;;;1.10;;
66212;SDS011;53015;50.046;8.238;2022-12-28T10:35:54;2.55;;;1.10;;
66212;SDS011;53015;50.046;8.238;2022-12-28T10:38:21;3.50;;;1.38;;
66212;SDS011;53015;50.046;8.238;2022-12-28T10:40:55;5.13;;;1.50;;
66212;SDS011;53015;50.046;8.238;2022-12-28T10:43:27;4.55;;;1.40;;
66212;SDS011;53015;50.046;8.238;2022-12-28T10:46:00;2.10;;;1.00;;
66212;SDS011;53015;50.046;8.238;2022-12-28T10:48:31;5.80;;;1.52;;
66212;SDS011;53015;50.046;8.238;2022-12-28T10:53:45;1.85;;;1.13;;
66212;SDS011;53015;50.046;8.238;2022-12-28T10:56:20;5.45;;;1.25;;
66212;SDS011;53015;50.046;8.238;2022-12-28T10:58:48;3.58;;;1.10;;
66212;SDS011;53015;50.046;8.238;2022-12-28T11:01:17;5.80;;;1.42;;
66212;SDS011;53015;50.046;8.238;2022-12-28T11:06:20;5.20;;;1.20;;
66212;SDS011;53015;50.046;8.238;2022-12-28T11:11:37;3.67;;;1.15;;
66212;SDS011;53015;50.046;8.238;2022-12-28T11:14:05;3.08;;;1.27;;
66212;SDS011;53015;50.046;8.238;2022-12-28T11:16:41;1.67;;;0.95;;
66212;SDS011;53015;50.046;8.238;2022-12-28T11:19:07;2.95;;;1.55;;
66212;SDS011;53015;50.046;8.238;2022-12-28T11:21:34;2.67;;;1.27;;
66212;SDS011;53015;50.046;8.238;2022-12-28T11:24:00;4.60;;;1.50;;
66212;SDS011;53015;50.046;8.238;2022-12-28T11:26:25;4.43;;;1.63;;
66212;SDS011;53015;50.046;8.238;2022-12-28T11:28:52;3.30;;;1.30;;
66212;SDS011;53015;50.046;8.238;2022-12-28T11:31:26;2.00;;;1.20;;
66212;SDS011;53015;50.046;8.238;2022-12-28T11:33:57;2.40;;;0.93;;
66212;SDS011;53015;50.046;8.238;2022-12-28T11:36:27;2.90;;;1.10;;
66212;SDS011;53015;50.046;8.238;2022-12-28T11:38:55;5.13;;;1.30;;
66212;SDS011;53015;50.046;8.238;2022-12-28T11:49:03;2.15;;;1.17;;
66212;SDS011;53015;50.046;8.238;2022-12-28T11:51:29;6.03;;;1.10;;
66212;SDS011;53015;50.046;8.238;2022-12-28T11:57:09;3.10;;;1.00;;
66212;SDS011;53015;50.046;8.238;2022-12-28T11:59:43;3.97;;;1.30;;
66212;SDS011;53015;50.046;8.238;2022-12-28T12:02:02;2.80;;;1.30;;
66212;SDS011;53015;50.046;8.238;2022-12-28T12:04:52;2.80;;;1.17;;
66212;SDS011;53015;50.046;8.238;2022-12-28T12:07:19;4.63;;;1.63;;
66212;SDS011;53015;50.046;8.238;2022-12-28T12:09:48;2.67;;;1.27;;
66212;SDS011;53015;50.046;8.238;2022-12-28T12:12:49;4.07;;;1.60;;
66212;SDS011;53015;50.046;8.238;2022-12-28T12:15:17;3.78;;;1.35;;
66212;SDS011;53015;50.046;8.238;2022-12-28T12:20:20;2.85;;;1.38;;
66212;SDS011;53015;50.046;8.238;2022-12-28T12:22:56;2.13;;;1.20;;
66212;SDS011;53015;50.046;8.238;2022-12-28T12:30:34;5.57;;;1.30;;
66212;SDS011;53015;50.046;8.238;2022-12-28T12:33:02;8.10;;;1.35;;
66212;SDS011;53015;50.046;8.238;2022-12-28T12:35:33;2.20;;;1.38;;
66212;SDS011;53015;50.046;8.238;2022-12-28T12:44:20;1.80;;;1.15;;
66212;SDS011;53015;50.046;8.238;2022-12-28T12:53:21;3.17;;;1.20;;
66212;SDS011;53015;50.046;8.238;2022-12-28T13:03:45;1.55;;;1.00;;
66212;SDS011;53015;50.046;8.238;2022-12-28T13:06:13;3.45;;;1.10;;
66212;SDS011;53015;50.046;8.238;2022-12-28T13:11:09;3.97;;;1.42;;
66212;SDS011;53015;50.046;8.238;2022-12-28T13:13:36;3.85;;;1.20;;
66212;SDS011;53015;50.046;8.238;2022-12-28T13:16:13;3.45;;;1.15;;
66212;SDS011;53015;50.046;8.238;2022-12-28T13:18:50;3.95;;;1.42;;
66212;SDS011;53015;50.046;8.238;2022-12-28T13:21:20;3.13;;;1.27;;
66212;SDS011;53015;50.046;8.238;2022-12-28T13:23:48;2.58;;;1.30;;
66212;SDS011;53015;50.046;8.238;2022-12-28T13:26:15;1.92;;;1.10;;
66212;SDS011;53015;50.046;8.238;2022-12-28T13:28:49;2.28;;;1.00;;
66212;SDS011;53015;50.046;8.238;2022-12-28T13:36:55;1.67;;;0.90;;
66212;SDS011;53015;50.046;8.238;2022-12-28T13:39:23;32.55;;;13.80;;
66212;SDS011;53015;50.046;8.238;2022-12-28T13:41:59;14.65;;;6.75;;
66212;SDS011;53015;50.046;8.238;2022-12-28T13:44:37;13.18;;;6.72;;
66212;SDS011;53015;50.046;8.238;2022-12-28T13:47:16;4.38;;;2.28;;
66212;SDS011;53015;50.046;8.238;2022-12-28T13:50:04;6.70;;;1.63;;
66212;SDS011;53015;50.046;8.238;2022-12-28T13:55:12;4.95;;;1.65;;
66212;SDS011;53015;50.046;8.238;2022-12-28T13:57:44;3.40;;;1.52;;
66212;SDS011;53015;50.046;8.238;2022-12-28T14:00:15;3.22;;;1.75;;
66212;SDS011;53015;50.046;8.238;2022-12-28T14:02:41;6.57;;;1.90;;
66212;SDS011;53015;50.046;8.238;2022-12-28T14:05:07;3.38;;;1.40;;
66212;SDS011;53015;50.046;8.238;2022-12-28T14:07:40;4.05;;;1.50;;
66212;SDS011;53015;50.046;8.238;2022-12-28T14:10:06;4.80;;;1.70;;
66212;SDS011;53015;50.046;8.238;2022-12-28T14:12:32;4.63;;;1.58;;
66212;SDS011;53015;50.046;8.238;2022-12-28T14:14:57;2.55;;;1.23;;
66212;SDS011;53015;50.046;8.238;2022-12-28T14:17:23;2.38;;;1.33;;
66212;SDS011;53015;50.046;8.238;2022-12-28T14:19:51;2.47;;;1.20;;
66212;SDS011;53015;50.046;8.238;2022-12-28T14:22:53;1.77;;;1.30;;
66212;SDS011;53015;50.046;8.238;2022-12-28T14:25:15;2.15;;;1.10;;
66212;SDS011;53015;50.046;8.238;2022-12-28T14:27:44;3.00;;;1.40;;
66212;SDS011;53015;50.046;8.238;2022-12-28T14:30:23;3.42;;;1.20;;
66212;SDS011;53015;50.046;8.238;2022-12-28T14:32:52;2.25;;;1.17;;
66212;SDS011;53015;50.046;8.238;2022-12-28T14:35:21;3.35;;;1.20;;
66212;SDS011;53015;50.046;8.238;2022-12-28T14:37:50;1.23;;;1.10;;
66212;SDS011;53015;50.046;8.238;2022-12-28T14:40:23;2.15;;;1.20;;
66212;SDS011;53015;50.046;8.238;2022-12-28T14:42:53;2.55;;;0.90;;
66212;SDS011;53015;50.046;8.238;2022-12-28T14:45:20;3.88;;;1.58;;
66212;SDS011;53015;50.046;8.238;2022-12-28T14:47:53;3.65;;;1.02;;
66212;SDS011;53015;50.046;8.238;2022-12-28T14:50:23;3.20;;;1.75;;
66212;SDS011;53015;50.046;8.238;2022-12-28T14:53:00;4.18;;;1.05;;
66212;SDS011;53015;50.046;8.238;2022-12-28T14:55:40;3.35;;;1.38;;
66212;SDS011;53015;50.046;8.238;2022-12-28T14:58:18;3.17;;;1.20;;
66212;SDS011;53015;50.046;8.238;2022-12-28T15:00:56;1.83;;;1.05;;
66212;SDS011;53015;50.046;8.238;2022-12-28T15:03:23;1.27;;;1.10;;
66212;SDS011;53015;50.046;8.238;2022-12-28T15:05:53;3.20;;;1.00;;
66212;SDS011;53015;50.046;8.238;2022-12-28T15:08:19;3.90;;;1.15;;
66212;SDS011;53015;50.046;8.238;2022-12-28T15:10:50;2.30;;;1.00;;
66212;SDS011;53015;50.046;8.238;2022-12-28T15:13:18;1.63;;;1.10;;
66212;SDS011;53015;50.046;8.238;2022-12-28T15:15:51;2.92;;;1.02;;
66212;SDS011;53015;50.046;8.238;2022-12-28T15:18:21;2.53;;;0.93;;
66212;SDS011;53015;50.046;8.238;2022-12-28T15:20:46;2.17;;;1.10;;
66212;SDS011;53015;50.046;8.238;2022-12-28T15:23:11;1.10;;;0.93;;
66212;SDS011;53015;50.046;8.238;2022-12-28T15:25:37;1.75;;;0.80;;
66212;SDS011;53015;50.046;8.238;2022-12-28T15:28:02;2.95;;;1.10;;
66212;SDS011;53015;50.046;8.238;2022-12-28T15:30:28;2.60;;;1.10;;
66212;SDS011;53015;50.046;8.238;2022-12-28T15:32:54;2.63;;;1.00;;
66212;SDS011;53015;50.046;8.238;2022-12-28T15:35:19;2.85;;;1.00;;
66212;SDS011;53015;50.046;8.238;2022-12-28T15:37:44;2.17;;;1.15;;
66212;SDS011;53015;50.046;8.238;2022-12-28T15:40:10;3.33;;;1.05;;
66212;SDS011;53015;50.046;8.238;2022-12-28T15:42:36;1.15;;;0.95;;
66212;SDS011;53015;50.046;8.238;2022-12-28T15:45:02;3.35;;;1.27;;
66212;SDS011;53015;50.046;8.238;2022-12-28T15:47:27;1.77;;;1.00;;
66212;SDS011;53015;50.046;8.238;2022-12-28T15:49:53;1.92;;;0.90;;
66212;SDS011;53015;50.046;8.238;2022-12-28T15:52:18;4.63;;;1.00;;
66212;SDS011;53015;50.046;8.238;2022-12-28T15:54:43;1.17;;;0.90;;
66212;SDS011;53015;50.046;8.238;2022-12-28T15:57:09;2.05;;;1.42;;
66212;SDS011;53015;50.046;8.238;2022-12-28T15:59:36;2.55;;;1.13;;
66212;SDS011;53015;50.046;8.238;2022-12-28T16:02:02;2.40;;;0.90;;
66212;SDS011;53015;50.046;8.238;2022-12-28T16:04:27;1.05;;;0.80;;
66212;SDS011;53015;50.046;8.238;2022-12-28T16:06:53;1.77;;;1.00;;
66212;SDS011;53015;50.046;8.238;2022-12-28T16:09:18;2.70;;;0.90;;
66212;SDS011;53015;50.046;8.238;2022-12-28T16:11:44;1.95;;;1.00;;
66212;SDS011;53015;50.046;8.238;2022-12-28T16:14:11;1.80;;;0.90;;
66212;SDS011;53015;50.046;8.238;2022-12-28T16:16:39;2.60;;;1.10;;
66212;SDS011;53015;50.046;8.238;2022-12-28T16:19:04;1.33;;;0.85;;
66212;SDS011;53015;50.046;8.238;2022-12-28T16:21:31;1.15;;;0.70;;
66212;SDS011;53015;50.046;8.238;2022-12-28T16:23:57;1.35;;;1.00;;
66212;SDS011;53015;50.046;8.238;2022-12-28T16:26:23;2.90;;;0.90;;
66212;SDS011;53015;50.046;8.238;2022-12-28T16:28:49;3.13;;;1.20;;
66212;SDS011;53015;50.046;8.238;2022-12-28T16:31:19;1.52;;;1.25;;